Terminal Aerodrome Forecast
Issued by NWS

Current Version | Previous Version | Text Only | Print | Product List | Glossary On
Versions: 1 2 3 4 5 6 7 8 9 10 11 12 13 14 15 16 17 18 19 20 21 22 23 24
000
FTPQ31 PGUM 020500
TAFPQ
TAF

PKWA 020520Z 0206/0306 VRB06KT 6SM -RA SCT010 BKN025 OVC090
      TEMPO 0206/0210 VRB12G18KT 1SM +TSRA SCT007CB OVC012
     FM021300 16011KT P6SM VCSH SCT015 BKN030 BKN100=

USA.gov is the U.S. government's official web portal to all federal, state and local government web resources and services.